createdAt,value
2019-03-24T00:00:30.392Z,87.50
2019-03-24T00:02:58.849Z,86.60
2019-03-24T00:05:27.298Z,86.70
2019-03-24T00:07:56.852Z,86.50
2019-03-24T00:10:25.561Z,86.30
2019-03-24T00:12:54.009Z,85.90
2019-03-24T00:15:26.497Z,85.90
2019-03-24T00:17:52.696Z,86.10
2019-03-24T00:20:21.133Z,86.70
2019-03-24T00:22:49.576Z,86.70
2019-03-24T00:25:18.013Z,87.40
2019-03-24T00:27:46.461Z,87.90
2019-03-24T00:30:15.510Z,87.60
2019-03-24T00:32:44.011Z,88.60
2019-03-24T00:35:12.580Z,89.20
2019-03-24T00:37:41.024Z,89.00
2019-03-24T00:40:10.037Z,89.10
2019-03-24T00:42:38.515Z,88.40
2019-03-24T00:45:10.562Z,88.00
2019-03-24T00:47:39.005Z,87.60
2019-03-24T00:50:07.914Z,87.00
2019-03-24T00:52:36.341Z,86.80
2019-03-24T00:55:06.953Z,86.70
2019-03-24T00:57:37.492Z,86.30
2019-03-24T01:00:07.521Z,86.20
2019-03-24T01:02:35.949Z,85.80
2019-03-24T01:05:06.337Z,85.90
2019-03-24T01:07:34.908Z,85.80
2019-03-24T01:10:04.889Z,86.00
2019-03-24T01:12:33.329Z,86.00
2019-03-24T01:15:01.773Z,86.10
2019-03-24T01:17:30.205Z,86.10
2019-03-24T01:19:58.665Z,86.20
2019-03-24T01:22:27.230Z,86.10
2019-03-24T01:24:55.674Z,86.40
2019-03-24T01:27:24.110Z,86.40
2019-03-24T01:29:52.571Z,86.80
2019-03-24T01:32:20.997Z,86.40
2019-03-24T01:34:49.441Z,87.10
2019-03-24T01:37:17.873Z,88.20
2019-03-24T01:39:46.572Z,89.20
2019-03-24T01:42:15.005Z,88.30
2019-03-24T01:44:43.449Z,88.60
2019-03-24T01:47:11.879Z,88.80
2019-03-24T01:49:40.326Z,89.50
2019-03-24T01:52:08.759Z,89.20
2019-03-24T01:54:37.545Z,89.30
2019-03-24T01:57:25.317Z,88.40
2019-03-24T01:59:53.764Z,88.00
2019-03-24T02:02:22.265Z,87.80
2019-03-24T02:04:50.704Z,87.70
2019-03-24T02:07:19.275Z,87.60
2019-03-24T02:09:48.184Z,87.80
2019-03-24T02:12:16.623Z,87.80
2019-03-24T02:14:45.153Z,87.80
2019-03-24T02:17:13.894Z,88.10
2019-03-24T02:19:42.324Z,88.10
2019-03-24T02:22:10.788Z,87.90
2019-03-24T02:24:39.212Z,87.80
2019-03-24T02:27:08.028Z,87.80
2019-03-24T02:29:36.468Z,87.80
2019-03-24T02:32:05.063Z,87.80
2019-03-24T02:34:33.505Z,87.70
2019-03-24T02:37:01.942Z,87.70
2019-03-24T02:39:30.382Z,87.60
2019-03-24T02:41:59.281Z,88.00
2019-03-24T02:44:27.718Z,88.60
2019-03-24T02:46:56.239Z,88.80
2019-03-24T02:49:24.676Z,88.70
2019-03-24T02:51:53.114Z,88.70
2019-03-24T02:54:21.547Z,88.60
2019-03-24T02:56:49.990Z,88.30
2019-03-24T02:59:18.418Z,88.60
2019-03-24T03:01:46.867Z,88.40
2019-03-24T03:04:15.297Z,88.10
2019-03-24T03:06:43.749Z,88.40
2019-03-24T03:09:12.242Z,88.10
2019-03-24T03:11:40.705Z,88.30
2019-03-24T03:14:09.198Z,88.20
2019-03-24T03:16:39.076Z,88.30
2019-03-24T03:19:08.303Z,88.20
2019-03-24T03:21:36.757Z,88.10
2019-03-24T03:24:05.583Z,88.10
2019-03-24T03:26:34.042Z,88.50
2019-03-24T03:29:02.547Z,88.80
2019-03-24T03:31:30.993Z,89.90
2019-03-24T03:33:59.433Z,90.00
2019-03-24T03:36:28.203Z,90.00
2019-03-24T03:38:56.763Z,89.50
2019-03-24T03:41:26.484Z,89.20
2019-03-24T03:43:54.910Z,88.90
2019-03-24T03:46:23.354Z,88.70
2019-03-24T03:48:51.789Z,88.50
2019-03-24T03:51:20.259Z,88.30
2019-03-24T03:53:48.692Z,88.20
2019-03-24T03:56:17.152Z,88.70
2019-03-24T03:58:45.601Z,89.30
2019-03-24T04:01:14.094Z,88.20
2019-03-24T04:03:42.540Z,88.50
2019-03-24T04:06:10.984Z,88.70
2019-03-24T04:08:39.776Z,88.70
2019-03-24T04:11:08.247Z,88.50
2019-03-24T04:13:36.766Z,88.40
2019-03-24T04:16:05.194Z,88.20
2019-03-24T04:18:33.738Z,88.30
2019-03-24T04:21:02.173Z,88.30
2019-03-24T04:23:30.636Z,87.90
2019-03-24T04:25:59.351Z,88.20
2019-03-24T04:28:27.790Z,87.80
2019-03-24T04:30:56.227Z,87.50
2019-03-24T04:33:24.695Z,88.80
2019-03-24T04:35:53.127Z,89.10
2019-03-24T04:38:21.581Z,89.00
2019-03-24T04:40:50.018Z,88.70
2019-03-24T04:43:18.482Z,88.50
2019-03-24T04:45:46.913Z,88.40
2019-03-24T04:48:15.360Z,88.30
2019-03-24T04:50:43.785Z,88.00
2019-03-24T04:53:12.257Z,88.00
2019-03-24T04:55:40.686Z,88.70
2019-03-24T04:58:09.152Z,87.60
2019-03-24T05:00:39.225Z,87.80
2019-03-24T05:03:07.754Z,88.20
2019-03-24T05:05:36.246Z,88.20
2019-03-24T05:08:05.101Z,88.30
2019-03-24T05:10:34.101Z,88.00
2019-03-24T05:13:02.545Z,88.10
2019-03-24T05:15:30.981Z,88.30
2019-03-24T05:17:59.431Z,87.90
2019-03-24T05:20:28.198Z,88.10
2019-03-24T05:22:56.645Z,88.60
2019-03-24T05:25:25.077Z,89.20
2019-03-24T05:27:53.528Z,90.00
2019-03-24T05:30:22.221Z,90.30
2019-03-24T05:32:51.033Z,90.00
2019-03-24T05:35:19.461Z,89.80
2019-03-24T05:37:47.893Z,89.10
2019-03-24T05:40:16.332Z,88.90
2019-03-24T05:42:45.050Z,89.10
2019-03-24T05:45:15.032Z,89.10
2019-03-24T05:47:43.461Z,88.90
2019-03-24T05:50:12.150Z,89.00
2019-03-24T05:52:40.585Z,89.20
2019-03-24T05:55:09.116Z,89.00
2019-03-24T05:57:37.553Z,89.30
2019-03-24T06:00:07.652Z,88.70
2019-03-24T06:02:36.092Z,89.10
2019-03-24T06:05:06.473Z,89.00
2019-03-24T06:07:34.905Z,89.30
2019-03-24T06:10:04.425Z,88.50
2019-03-24T06:12:32.865Z,88.10
2019-03-24T06:15:01.313Z,87.90
2019-03-24T06:17:29.746Z,87.80
2019-03-24T06:19:58.193Z,87.80
2019-03-24T06:22:26.625Z,87.40
2019-03-24T06:24:55.125Z,87.20
2019-03-24T06:27:23.560Z,87.00
2019-03-24T06:29:52.011Z,86.90
2019-03-24T06:32:20.437Z,87.80
2019-03-24T06:34:48.903Z,88.30
2019-03-24T06:37:17.333Z,87.90
2019-03-24T06:39:45.797Z,87.80
2019-03-24T06:42:14.554Z,87.80
2019-03-24T06:44:43.339Z,88.70
2019-03-24T06:47:11.768Z,89.10
2019-03-24T06:49:40.217Z,88.30
2019-03-24T06:52:08.659Z,88.30
2019-03-24T06:54:37.175Z,89.20
2019-03-24T06:57:05.605Z,88.80
2019-03-24T06:59:34.048Z,89.20
2019-03-24T07:02:02.476Z,88.40
2019-03-24T07:04:30.927Z,88.80
2019-03-24T07:06:59.360Z,89.10
2019-03-24T07:09:27.800Z,88.20
2019-03-24T07:11:56.234Z,87.50
2019-03-24T07:14:25.031Z,87.90
2019-03-24T07:16:53.461Z,87.50
2019-03-24T07:19:41.253Z,87.20
2019-03-24T07:22:09.680Z,86.90
2019-03-24T07:24:38.127Z,86.70
2019-03-24T07:27:06.558Z,86.80
2019-03-24T07:29:35.013Z,85.60
2019-03-24T07:32:03.450Z,85.50
2019-03-24T07:34:32.221Z,85.00
2019-03-24T07:37:00.742Z,83.90
2019-03-24T07:39:29.177Z,83.60
2019-03-24T07:41:57.617Z,83.80
2019-03-24T07:44:26.052Z,83.30
2019-03-24T07:46:54.497Z,82.40
2019-03-24T07:49:22.929Z,81.90
2019-03-24T07:51:51.441Z,82.30
2019-03-24T07:54:19.865Z,80.80
2019-03-24T07:56:48.309Z,81.30
2019-03-24T07:59:16.742Z,80.90
2019-03-24T08:01:48.332Z,79.90
2019-03-24T08:04:17.069Z,79.30
2019-03-24T08:06:45.539Z,79.10
2019-03-24T08:09:15.494Z,79.10
2019-03-24T08:11:43.961Z,78.60
2019-03-24T08:14:12.386Z,77.90
2019-03-24T08:16:40.829Z,78.90
2019-03-24T08:19:09.249Z,77.60
2019-03-24T08:21:37.697Z,77.10
2019-03-24T08:24:06.130Z,77.60
2019-03-24T08:26:34.569Z,75.90
2019-03-24T08:29:03.011Z,75.00
2019-03-24T08:31:31.445Z,75.10
2019-03-24T08:33:59.873Z,75.80
2019-03-24T08:36:28.322Z,75.50
2019-03-24T08:38:56.749Z,75.00
2019-03-24T08:41:25.193Z,73.90
2019-03-24T08:43:53.884Z,73.80
2019-03-24T08:46:22.326Z,71.70
2019-03-24T08:48:50.757Z,70.40
2019-03-24T08:51:19.204Z,70.00
2019-03-24T08:53:47.633Z,71.20
2019-03-24T08:56:16.078Z,68.50
2019-03-24T08:58:44.514Z,68.00
2019-03-24T09:01:12.962Z,67.30
2019-03-24T09:03:41.402Z,67.50
2019-03-24T09:06:09.854Z,68.20
2019-03-24T09:08:38.357Z,68.50
2019-03-24T09:11:06.877Z,68.40
2019-03-24T09:13:35.305Z,68.80
2019-03-24T09:16:03.744Z,70.20
2019-03-24T09:18:32.192Z,67.90
2019-03-24T09:21:00.945Z,67.00
2019-03-24T09:23:29.393Z,66.90
2019-03-24T09:25:58.754Z,66.70
2019-03-24T09:28:27.201Z,66.30
2019-03-24T09:30:55.637Z,66.40
2019-03-24T09:33:24.090Z,67.30
2019-03-24T09:35:52.525Z,66.00
2019-03-24T09:38:20.983Z,65.40
2019-03-24T09:40:49.409Z,66.40
2019-03-24T09:43:17.862Z,64.10
2019-03-24T09:45:46.297Z,64.80
2019-03-24T09:48:15.103Z,64.80
2019-03-24T09:50:43.577Z,65.20
2019-03-24T09:53:12.020Z,65.00
2019-03-24T09:55:40.801Z,65.00
2019-03-24T09:58:09.585Z,66.00
2019-03-24T10:00:39.663Z,64.00
2019-03-24T10:03:08.293Z,63.20
2019-03-24T10:05:36.724Z,63.00
2019-03-24T10:08:24.505Z,62.80
2019-03-24T10:10:53.199Z,63.30
2019-03-24T10:13:21.646Z,64.00
2019-03-24T10:15:50.153Z,63.20
2019-03-24T10:18:18.673Z,63.40
2019-03-24T10:20:47.107Z,61.80
2019-03-24T10:23:15.561Z,62.10
2019-03-24T10:25:43.997Z,62.20
2019-03-24T10:28:12.450Z,62.30
2019-03-24T10:30:40.877Z,62.50
2019-03-24T10:33:09.330Z,61.90
2019-03-24T10:35:37.762Z,62.50
2019-03-24T10:38:06.211Z,62.70
2019-03-24T10:40:34.730Z,62.10
2019-03-24T10:43:03.178Z,61.40
2019-03-24T10:45:31.662Z,61.60
2019-03-24T10:48:00.125Z,62.80
2019-03-24T10:50:28.902Z,59.10
2019-03-24T10:52:57.373Z,60.40
2019-03-24T10:55:25.804Z,58.70
2019-03-24T10:57:54.248Z,58.90
2019-03-24T11:00:31.363Z,59.00
2019-03-24T11:02:59.899Z,58.10
2019-03-24T11:05:28.329Z,58.50
2019-03-24T11:07:56.782Z,58.80
2019-03-24T11:10:25.213Z,58.50
2019-03-24T11:12:53.663Z,58.20
2019-03-24T11:15:22.103Z,58.70
2019-03-24T11:17:50.549Z,58.70
2019-03-24T11:20:18.986Z,59.10
2019-03-24T11:22:47.433Z,58.70
2019-03-24T11:25:18.306Z,57.60
2019-03-24T11:27:47.228Z,58.80
2019-03-24T11:30:16.374Z,60.30
2019-03-24T11:32:45.573Z,58.30
2019-03-24T11:35:14.513Z,57.90
2019-03-24T11:37:43.445Z,57.10
2019-03-24T11:40:13.269Z,57.00
2019-03-24T11:42:42.091Z,56.80
2019-03-24T11:45:12.018Z,57.90
2019-03-24T11:47:40.778Z,56.20
2019-03-24T11:50:10.797Z,59.70
2019-03-24T11:52:39.316Z,57.60
2019-03-24T11:55:09.409Z,56.60
2019-03-24T11:57:37.845Z,55.10
2019-03-24T12:00:16.761Z,54.70
2019-03-24T12:02:45.205Z,54.80
2019-03-24T12:05:13.753Z,54.70
2019-03-24T12:07:42.278Z,54.90
2019-03-24T12:10:13.091Z,54.10
2019-03-24T12:12:41.583Z,54.40
2019-03-24T12:15:10.685Z,53.00
2019-03-24T12:17:39.154Z,52.90
2019-03-24T12:20:09.674Z,53.80
2019-03-24T12:22:38.114Z,53.30
2019-03-24T12:25:08.753Z,54.30
2019-03-24T12:27:37.190Z,53.30
2019-03-24T12:30:07.881Z,52.00
2019-03-24T12:32:36.369Z,53.20
2019-03-24T12:35:08.283Z,50.80
2019-03-24T12:37:36.710Z,52.60
2019-03-24T12:40:07.386Z,51.10
2019-03-24T12:42:35.817Z,51.60
2019-03-24T12:45:09.407Z,48.40
2019-03-24T12:47:37.837Z,53.00
2019-03-24T12:50:10.272Z,49.00
2019-03-24T12:52:38.949Z,51.10
2019-03-24T12:55:07.922Z,51.50
2019-03-24T12:57:36.353Z,51.40
2019-03-24T13:00:10.468Z,48.40
2019-03-24T13:02:38.900Z,48.70
2019-03-24T13:05:08.789Z,48.90
2019-03-24T13:07:37.302Z,48.40
2019-03-24T13:10:06.487Z,47.80
2019-03-24T13:12:34.925Z,48.80
2019-03-24T13:15:04.922Z,49.20
2019-03-24T13:17:33.350Z,49.10
2019-03-24T13:20:02.125Z,50.50
2019-03-24T13:22:30.631Z,50.70
2019-03-24T13:24:59.070Z,50.90
2019-03-24T13:27:27.521Z,51.10
2019-03-24T13:29:55.957Z,50.50
2019-03-24T13:32:24.401Z,48.80
2019-03-24T13:34:52.837Z,49.80
2019-03-24T13:37:21.302Z,48.80
2019-03-24T13:39:49.774Z,49.60
2019-03-24T13:42:18.210Z,48.90
2019-03-24T13:44:46.659Z,50.70
2019-03-24T13:47:15.111Z,50.10
2019-03-24T13:49:43.541Z,49.10
2019-03-24T13:52:12.258Z,47.30
2019-03-24T13:54:40.698Z,48.30
2019-03-24T13:57:09.146Z,48.70
2019-03-24T13:59:37.578Z,49.10
2019-03-24T14:02:06.377Z,48.50
2019-03-24T14:04:34.801Z,47.70
2019-03-24T14:07:03.263Z,49.20
2019-03-24T14:09:31.685Z,51.10
2019-03-24T14:12:00.136Z,47.90
2019-03-24T14:14:28.569Z,48.60
2019-03-24T14:16:57.027Z,47.80
2019-03-24T14:19:25.458Z,46.40
2019-03-24T14:21:53.907Z,46.80
2019-03-24T14:24:22.637Z,47.60
2019-03-24T14:26:51.087Z,47.00
2019-03-24T14:29:19.560Z,46.00
2019-03-24T14:31:48.049Z,46.80
2019-03-24T14:34:16.481Z,47.10
2019-03-24T14:36:44.941Z,48.60
2019-03-24T14:39:13.618Z,47.40
2019-03-24T14:41:42.070Z,47.90
2019-03-24T14:44:10.505Z,45.90
2019-03-24T14:46:38.958Z,44.40
2019-03-24T14:49:07.760Z,45.20
2019-03-24T14:51:36.210Z,45.10
2019-03-24T14:54:04.722Z,45.80
2019-03-24T14:56:34.137Z,45.40
2019-03-24T14:59:02.769Z,46.40
2019-03-24T15:01:31.216Z,46.00
2019-03-24T15:03:59.665Z,46.00
2019-03-24T15:06:28.105Z,46.30
2019-03-24T15:08:56.562Z,47.40
2019-03-24T15:11:25.010Z,45.40
2019-03-24T15:13:53.456Z,46.40
2019-03-24T15:16:22.208Z,44.90
2019-03-24T15:18:50.656Z,46.30
2019-03-24T15:21:19.090Z,46.90
2019-03-24T15:23:47.537Z,45.00
2019-03-24T15:26:15.978Z,45.40
2019-03-24T15:28:44.438Z,45.70
2019-03-24T15:31:13.178Z,47.60
2019-03-24T15:33:41.627Z,45.20
2019-03-24T15:36:10.065Z,46.70
2019-03-24T15:38:38.770Z,46.60
2019-03-24T15:41:07.206Z,47.70
2019-03-24T15:43:35.658Z,48.80
2019-03-24T15:46:04.088Z,48.40
2019-03-24T15:48:32.538Z,48.10
2019-03-24T15:51:00.973Z,48.20
2019-03-24T15:53:29.421Z,47.90
2019-03-24T15:55:57.857Z,48.00
2019-03-24T15:58:26.301Z,48.20
2019-03-24T16:00:54.736Z,48.40
2019-03-24T16:03:23.186Z,48.90
2019-03-24T16:05:51.621Z,46.80
2019-03-24T16:08:20.072Z,47.50
2019-03-24T16:10:48.501Z,47.80
2019-03-24T16:13:16.974Z,46.30
2019-03-24T16:15:45.425Z,46.70
2019-03-24T16:18:13.924Z,47.00
2019-03-24T16:20:42.380Z,48.40
2019-03-24T16:23:10.834Z,47.70
2019-03-24T16:25:39.273Z,47.80
2019-03-24T16:28:07.745Z,47.30
2019-03-24T16:30:36.536Z,47.30
2019-03-24T16:33:05.115Z,48.30
2019-03-24T16:35:33.583Z,48.50
2019-03-24T16:38:02.285Z,49.10
2019-03-24T16:40:30.753Z,49.30
2019-03-24T16:42:59.194Z,49.60
2019-03-24T16:45:27.633Z,49.60
2019-03-24T16:47:56.089Z,50.10
2019-03-24T16:50:24.536Z,50.20
2019-03-24T16:52:52.973Z,50.60
2019-03-24T16:55:21.447Z,50.90
2019-03-24T16:57:50.019Z,51.20
2019-03-24T17:00:18.996Z,51.50
2019-03-24T17:02:47.622Z,52.00
2019-03-24T17:05:16.149Z,52.40
2019-03-24T17:07:44.655Z,52.60
2019-03-24T17:10:13.446Z,52.70
2019-03-24T17:12:41.882Z,53.20
2019-03-24T17:15:10.773Z,53.10
2019-03-24T17:17:39.465Z,53.50
2019-03-24T17:20:08.930Z,53.70
2019-03-24T17:22:37.444Z,54.30
2019-03-24T17:25:06.514Z,54.40
2019-03-24T17:27:34.957Z,54.80
2019-03-24T17:30:04.726Z,55.50
2019-03-24T17:32:33.262Z,56.20
2019-03-24T17:35:01.730Z,56.50
2019-03-24T17:37:30.179Z,57.00
2019-03-24T17:39:58.933Z,57.70
2019-03-24T17:42:27.377Z,57.30
2019-03-24T17:44:55.897Z,57.50
2019-03-24T17:47:24.336Z,57.70
2019-03-24T17:49:52.784Z,58.10
2019-03-24T17:52:21.588Z,58.30
2019-03-24T17:54:50.585Z,58.70
2019-03-24T17:57:19.129Z,58.90
2019-03-24T17:59:47.581Z,59.10
2019-03-24T18:02:16.029Z,59.30
2019-03-24T18:04:44.545Z,60.50
2019-03-24T18:07:13.259Z,59.90
2019-03-24T18:09:41.693Z,60.20
2019-03-24T18:12:10.394Z,60.50
2019-03-24T18:14:39.117Z,60.50
2019-03-24T18:17:07.633Z,61.10
2019-03-24T18:19:36.069Z,61.10
2019-03-24T18:22:11.646Z,61.10
2019-03-24T18:24:34.685Z,61.50
2019-03-24T18:27:03.140Z,61.70
2019-03-24T18:29:31.570Z,62.10
2019-03-24T18:32:00.335Z,62.20
2019-03-24T18:34:28.761Z,63.70
2019-03-24T18:36:57.219Z,63.50
2019-03-24T18:39:25.649Z,63.40
2019-03-24T18:41:54.357Z,64.10
2019-03-24T18:44:22.885Z,64.20
2019-03-24T18:46:51.338Z,64.00
2019-03-24T18:49:19.773Z,64.30
2019-03-24T18:51:48.226Z,64.10
2019-03-24T18:54:16.674Z,64.40
2019-03-24T18:56:45.188Z,65.60
2019-03-24T18:59:13.616Z,65.40
2019-03-24T19:01:42.733Z,65.30
2019-03-24T19:04:12.101Z,65.30
2019-03-24T19:06:41.397Z,66.10
2019-03-24T19:09:10.287Z,66.30
2019-03-24T19:11:39.647Z,66.70
2019-03-24T19:14:08.133Z,66.60
2019-03-24T19:16:36.590Z,66.80
2019-03-24T19:19:05.092Z,66.80
2019-03-24T19:21:33.706Z,67.10
2019-03-24T19:24:02.146Z,67.90
2019-03-24T19:26:30.598Z,67.50
2019-03-24T19:28:59.285Z,68.30
2019-03-24T19:31:27.947Z,68.60
2019-03-24T19:33:56.534Z,68.70
2019-03-24T19:36:25.050Z,68.70
2019-03-24T19:38:53.823Z,68.60
2019-03-24T19:41:22.533Z,69.10
2019-03-24T19:43:50.967Z,69.40
2019-03-24T19:46:19.413Z,69.30
2019-03-24T19:48:47.844Z,69.10
2019-03-24T19:51:16.282Z,69.60
2019-03-24T19:53:44.733Z,70.10
2019-03-24T19:56:13.169Z,70.80
2019-03-24T19:58:41.618Z,70.80
2019-03-24T20:01:10.057Z,71.20
2019-03-24T20:03:38.586Z,70.80
2019-03-24T20:06:07.094Z,70.70
2019-03-24T20:08:35.542Z,70.50
2019-03-24T20:11:04.218Z,72.00
2019-03-24T20:13:32.671Z,71.90
2019-03-24T20:16:01.104Z,72.20
2019-03-24T20:18:29.555Z,73.10
2019-03-24T20:20:58.678Z,72.60
2019-03-24T20:23:27.147Z,72.40
2019-03-24T20:25:55.910Z,72.00
2019-03-24T20:28:24.416Z,71.50
2019-03-24T20:30:53.181Z,71.40
2019-03-24T20:33:21.629Z,71.00
2019-03-24T20:35:50.065Z,70.70
2019-03-24T20:38:18.521Z,70.80
2019-03-24T20:40:47.213Z,70.50
2019-03-24T20:43:15.685Z,70.30
2019-03-24T20:45:44.482Z,70.90
2019-03-24T20:48:12.935Z,70.80
2019-03-24T20:50:41.426Z,71.40
2019-03-24T20:53:17.974Z,70.90
2019-03-24T20:55:40.066Z,70.50
2019-03-24T20:58:08.536Z,70.40
2019-03-24T21:00:37.409Z,70.10
2019-03-24T21:03:07.593Z,70.20
2019-03-24T21:05:36.370Z,70.10
2019-03-24T21:08:04.977Z,70.40
2019-03-24T21:10:33.482Z,70.30
2019-03-24T21:13:01.930Z,70.40
2019-03-24T21:15:30.367Z,70.80
2019-03-24T21:17:58.838Z,70.80
2019-03-24T21:20:27.273Z,71.00
2019-03-24T21:22:55.741Z,71.10
2019-03-24T21:25:24.185Z,71.20
2019-03-24T21:27:52.917Z,71.50
2019-03-24T21:30:24.486Z,71.20
2019-03-24T21:32:52.961Z,71.60
2019-03-24T21:35:21.397Z,71.60
2019-03-24T21:37:49.832Z,72.30
2019-03-24T21:40:18.285Z,71.50
2019-03-24T21:42:46.726Z,71.50
2019-03-24T21:45:15.518Z,71.20
2019-03-24T21:47:44.033Z,71.20
2019-03-24T21:50:13.205Z,71.20
2019-03-24T21:52:41.718Z,71.30
2019-03-24T21:55:10.306Z,71.10
2019-03-24T21:57:38.751Z,70.60
2019-03-24T22:00:09.385Z,70.70
2019-03-24T22:02:37.897Z,70.60
2019-03-24T22:05:06.781Z,70.60
2019-03-24T22:07:35.297Z,70.80
2019-03-24T22:10:05.970Z,70.60
2019-03-24T22:12:34.663Z,70.00
2019-03-24T22:15:03.261Z,69.80
2019-03-24T22:17:31.705Z,69.10
2019-03-24T22:20:00.511Z,68.30
2019-03-24T22:22:28.947Z,68.70
2019-03-24T22:24:57.394Z,68.40
2019-03-24T22:27:25.834Z,67.70
2019-03-24T22:29:54.282Z,66.80
2019-03-24T22:32:22.720Z,66.80
2019-03-24T22:34:51.174Z,66.70
2019-03-24T22:37:19.990Z,67.00
2019-03-24T22:39:48.453Z,67.10
2019-03-24T22:42:16.889Z,67.60
2019-03-24T22:44:45.350Z,68.00
2019-03-24T22:47:14.142Z,68.00
2019-03-24T22:49:42.617Z,68.20
2019-03-24T22:52:11.057Z,69.20
2019-03-24T22:54:39.515Z,68.70
2019-03-24T22:57:07.953Z,68.90
2019-03-24T22:59:36.401Z,68.90
2019-03-24T23:02:05.176Z,68.70
2019-03-24T23:04:33.705Z,68.60
2019-03-24T23:07:02.137Z,68.20
2019-03-24T23:09:30.663Z,68.30
2019-03-24T23:11:59.269Z,68.70
2019-03-24T23:14:27.721Z,68.90
2019-03-24T23:16:56.156Z,69.00
2019-03-24T23:19:24.611Z,69.50
2019-03-24T23:21:53.051Z,69.70
2019-03-24T23:24:21.513Z,69.60
2019-03-24T23:26:49.956Z,69.90
2019-03-24T23:29:18.401Z,69.90
2019-03-24T23:31:46.833Z,69.70
2019-03-24T23:34:15.285Z,70.00
2019-03-24T23:36:43.724Z,70.20
2019-03-24T23:39:12.170Z,71.00
2019-03-24T23:41:40.612Z,71.10
2019-03-24T23:44:09.113Z,71.30
2019-03-24T23:46:37.566Z,71.50
2019-03-24T23:49:06.042Z,71.60
2019-03-24T23:51:34.530Z,71.70
2019-03-24T23:54:02.961Z,72.60
2019-03-24T23:56:31.408Z,72.60
2019-03-24T23:58:59.841Z,73.50
